createdAt,value
2023-03-04T00:04:55.000Z,93.17
2023-03-04T00:09:54.000Z,92.97
2023-03-04T00:14:54.000Z,92.88
2023-03-04T00:20:11.000Z,92.85
2023-03-04T00:25:09.000Z,92.97
2023-03-04T00:29:54.000Z,93.20
2023-03-04T00:35:10.000Z,93.93
2023-03-04T00:39:55.000Z,94.69
2023-03-04T00:44:56.000Z,94.05
2023-03-04T01:09:56.000Z,93.11
2023-03-04T01:15:10.000Z,93.27
2023-03-04T01:19:55.000Z,94.08
2023-03-04T01:24:54.000Z,94.14
2023-03-04T01:29:54.000Z,94.00
2023-03-04T01:34:54.000Z,93.97
2023-03-04T01:39:54.000Z,94.17
2023-03-04T01:44:54.000Z,94.08
2023-03-04T01:49:55.000Z,94.30
2023-03-04T01:55:01.000Z,93.79
2023-03-04T01:59:46.000Z,93.76
2023-03-04T02:05:10.000Z,94.30
2023-03-04T02:10:01.000Z,94.17
2023-03-04T02:15:01.000Z,93.97
2023-03-04T02:20:01.000Z,93.91
2023-03-04T02:25:00.000Z,94.15
2023-03-04T02:30:01.000Z,94.53
2023-03-04T02:35:02.000Z,94.79
2023-03-04T02:40:01.000Z,95.20
2023-03-04T02:45:02.000Z,95.46
2023-03-04T02:50:02.000Z,95.37
2023-03-04T02:54:58.000Z,95.59
2023-03-04T03:00:09.000Z,95.93
2023-03-04T03:05:01.000Z,96.31
2023-03-04T03:10:09.000Z,96.31
2023-03-04T03:15:05.000Z,96.31
2023-03-04T03:20:02.000Z,96.52
2023-03-04T03:25:01.000Z,95.93
2023-03-04T03:30:01.000Z,95.47
2023-03-04T03:35:03.000Z,94.69
2023-03-04T03:40:02.000Z,93.86
2023-03-04T03:45:01.000Z,93.56
2023-03-04T03:50:01.000Z,93.29
2023-03-04T03:55:01.000Z,93.17
2023-03-04T04:00:01.000Z,92.84
2023-03-04T04:05:01.000Z,92.52
2023-03-04T04:10:01.000Z,92.58
2023-03-04T04:15:01.000Z,92.58
2023-03-04T04:20:01.000Z,92.52
2023-03-04T04:25:00.000Z,92.76
2023-03-04T04:30:00.000Z,92.44
2023-03-04T04:35:01.000Z,92.18
2023-03-04T04:40:01.000Z,92.21
2023-03-04T04:45:01.000Z,92.10
2023-03-04T04:50:01.000Z,92.44
2023-03-04T04:55:01.000Z,92.27
2023-03-04T05:00:01.000Z,92.41
2023-03-04T05:05:00.000Z,92.46
2023-03-04T05:10:00.000Z,92.66
2023-03-04T05:15:01.000Z,92.60
2023-03-04T05:20:01.000Z,93.16
2023-03-04T05:25:15.000Z,93.81
2023-03-04T05:30:01.000Z,94.15
2023-03-04T05:35:01.000Z,94.91
2023-03-04T05:40:01.000Z,94.99
2023-03-04T05:45:01.000Z,94.83
2023-03-04T05:50:00.000Z,94.91
2023-03-04T05:55:01.000Z,94.95
2023-03-04T06:00:05.000Z,94.91
2023-03-04T06:05:05.000Z,95.25
2023-03-04T06:10:02.000Z,95.63
2023-03-04T06:15:01.000Z,95.77
2023-03-04T06:20:02.000Z,95.84
2023-03-04T06:25:03.000Z,95.84
2023-03-04T06:30:01.000Z,95.99
2023-03-04T06:35:07.000Z,96.32
2023-03-04T06:40:02.000Z,96.45
2023-03-04T06:45:00.000Z,96.55
2023-03-04T06:50:01.000Z,96.82
2023-03-04T06:55:00.000Z,96.92
2023-03-04T07:00:00.000Z,97.17
2023-03-04T07:05:00.000Z,97.26
2023-03-04T07:10:01.000Z,97.34
2023-03-04T07:15:00.000Z,97.30
2023-03-04T07:20:01.000Z,97.32
2023-03-04T07:25:00.000Z,97.26
2023-03-04T07:30:01.000Z,97.28
2023-03-04T07:35:01.000Z,97.35
2023-03-04T07:40:01.000Z,97.21
2023-03-04T07:45:01.000Z,96.59
2023-03-04T07:50:01.000Z,94.31
2023-03-04T07:55:00.000Z,90.44
2023-03-04T08:00:01.000Z,88.18
2023-03-04T08:05:01.000Z,85.92
2023-03-04T08:10:00.000Z,85.55
2023-03-04T08:15:00.000Z,84.84
2023-03-04T08:20:00.000Z,83.91
2023-03-04T08:25:01.000Z,83.26
2023-03-04T08:30:00.000Z,82.46
2023-03-04T08:35:01.000Z,82.22
2023-03-04T08:40:01.000Z,82.17
2023-03-04T08:45:01.000Z,83.37
2023-03-04T08:50:01.000Z,83.01
2023-03-04T08:55:01.000Z,82.65
2023-03-04T09:00:01.000Z,81.39
2023-03-04T09:05:01.000Z,79.95
2023-03-04T09:10:01.000Z,77.80
2023-03-04T09:15:01.000Z,76.63
2023-03-04T09:20:01.000Z,77.07
2023-03-04T09:25:01.000Z,75.94
2023-03-04T09:30:01.000Z,74.89
2023-03-04T09:35:01.000Z,73.50
2023-03-04T09:40:01.000Z,72.99
2023-03-04T09:45:01.000Z,72.95
2023-03-04T09:50:01.000Z,75.24
2023-03-04T09:55:01.000Z,75.02
2023-03-04T10:00:01.000Z,73.74
2023-03-04T10:05:01.000Z,74.24
2023-03-04T10:10:01.000Z,72.24
2023-03-04T10:15:01.000Z,74.27
2023-03-04T10:20:01.000Z,74.52
2023-03-04T10:25:01.000Z,73.45
2023-03-04T10:30:01.000Z,73.05
2023-03-04T10:35:01.000Z,70.38
2023-03-04T10:40:01.000Z,71.97
2023-03-04T10:45:01.000Z,71.93
2023-03-04T10:50:01.000Z,71.38
2023-03-04T10:55:01.000Z,71.48
2023-03-04T11:00:01.000Z,72.32
2023-03-04T11:05:01.000Z,71.20
2023-03-04T11:10:01.000Z,71.26
2023-03-04T11:15:01.000Z,70.91
2023-03-04T11:20:01.000Z,71.49
2023-03-04T11:25:01.000Z,71.51
2023-03-04T11:30:01.000Z,71.89
2023-03-04T11:35:01.000Z,71.36
2023-03-04T11:40:01.000Z,71.02
2023-03-04T11:45:01.000Z,71.45
2023-03-04T11:50:01.000Z,70.93
2023-03-04T11:55:02.000Z,72.72
2023-03-04T12:00:03.000Z,72.97
2023-03-04T12:05:01.000Z,72.62
2023-03-04T12:10:01.000Z,71.27
2023-03-04T12:15:01.000Z,71.51
2023-03-04T12:19:37.000Z,72.20
2023-03-04T12:25:01.000Z,70.30
2023-03-04T12:30:01.000Z,70.62
2023-03-04T12:35:01.000Z,69.35
2023-03-04T12:40:01.000Z,71.08
2023-03-04T12:45:01.000Z,71.32
2023-03-04T12:50:01.000Z,71.59
2023-03-04T12:55:01.000Z,71.87
2023-03-04T13:00:03.000Z,70.00
2023-03-04T13:05:01.000Z,72.11
2023-03-04T13:10:01.000Z,70.16
2023-03-04T13:15:01.000Z,70.50
2023-03-04T13:20:01.000Z,70.69
2023-03-04T13:25:01.000Z,70.74
2023-03-04T13:30:01.000Z,69.16
2023-03-04T13:35:01.000Z,69.48
2023-03-04T13:40:01.000Z,70.32
2023-03-04T13:45:01.000Z,69.78
2023-03-04T13:50:01.000Z,70.35
2023-03-04T13:55:01.000Z,70.30
2023-03-04T14:00:01.000Z,70.16
2023-03-04T14:05:01.000Z,69.94
2023-03-04T14:10:01.000Z,69.67
2023-03-04T14:15:01.000Z,69.11
2023-03-04T14:20:01.000Z,69.55
2023-03-04T14:25:01.000Z,70.69
2023-03-04T14:30:01.000Z,68.69
2023-03-04T14:35:01.000Z,68.26
2023-03-04T14:40:01.000Z,69.60
2023-03-04T14:45:01.000Z,68.84
2023-03-04T14:50:01.000Z,68.73
2023-03-04T14:55:01.000Z,67.97
2023-03-04T15:00:01.000Z,68.87
2023-03-04T15:05:01.000Z,68.84
2023-03-04T15:10:01.000Z,69.52
2023-03-04T15:15:01.000Z,68.34
2023-03-04T15:20:01.000Z,68.20
2023-03-04T15:25:01.000Z,67.71
2023-03-04T15:30:01.000Z,68.59
2023-03-04T15:35:01.000Z,69.09
2023-03-04T15:40:01.000Z,68.46
2023-03-04T15:45:01.000Z,68.72
2023-03-04T15:50:01.000Z,68.04
2023-03-04T15:55:01.000Z,69.39
2023-03-04T16:00:01.000Z,68.95
2023-03-04T16:05:01.000Z,68.10
2023-03-04T16:10:01.000Z,68.33
2023-03-04T16:15:01.000Z,66.28
2023-03-04T16:20:01.000Z,66.42
2023-03-04T16:25:01.000Z,65.34
2023-03-04T16:30:01.000Z,63.66
2023-03-04T16:35:01.000Z,63.34
2023-03-04T16:40:01.000Z,63.27
2023-03-04T16:45:01.000Z,63.29
2023-03-04T16:50:01.000Z,64.18
2023-03-04T16:55:01.000Z,65.13
2023-03-04T17:00:01.000Z,65.86
2023-03-04T17:05:01.000Z,66.66
2023-03-04T17:10:01.000Z,70.00
2023-03-04T17:15:01.000Z,71.53
2023-03-04T17:20:01.000Z,71.91
2023-03-04T17:25:01.000Z,73.79
2023-03-04T17:30:01.000Z,74.35
2023-03-04T17:35:01.000Z,73.23
2023-03-04T17:40:01.000Z,73.74
2023-03-04T17:45:01.000Z,75.02
2023-03-04T17:50:01.000Z,76.21
2023-03-04T17:55:01.000Z,75.16
2023-03-04T18:00:01.000Z,75.31
2023-03-04T18:05:01.000Z,77.29
2023-03-04T18:10:01.000Z,76.78
2023-03-04T18:15:01.000Z,78.37
2023-03-04T18:20:01.000Z,77.53
2023-03-04T18:25:02.000Z,78.59
2023-03-04T18:30:01.000Z,76.72
2023-03-04T18:35:01.000Z,75.15
2023-03-04T18:40:01.000Z,75.12
2023-03-04T18:45:01.000Z,75.14
2023-03-04T18:50:01.000Z,76.18
2023-03-04T18:55:01.000Z,74.33
2023-03-04T19:00:01.000Z,76.93
2023-03-04T19:05:01.000Z,76.00
2023-03-04T19:10:01.000Z,76.54
2023-03-04T19:15:01.000Z,75.70
2023-03-04T19:20:01.000Z,76.15
2023-03-04T19:25:01.000Z,78.57
2023-03-04T19:30:02.000Z,79.74
2023-03-04T19:35:01.000Z,78.61
2023-03-04T19:40:01.000Z,77.85
2023-03-04T19:45:02.000Z,77.40
2023-03-04T19:50:01.000Z,77.90
2023-03-04T19:55:01.000Z,79.10
2023-03-04T20:00:01.000Z,77.45
2023-03-04T20:05:01.000Z,79.62
2023-03-04T20:10:01.000Z,81.05
2023-03-04T20:15:01.000Z,79.92
2023-03-04T20:20:01.000Z,81.78
2023-03-04T20:25:01.000Z,82.29
2023-03-04T20:30:01.000Z,83.42
2023-03-04T20:35:01.000Z,82.72
2023-03-04T20:40:02.000Z,83.29
2023-03-04T20:45:01.000Z,84.43
2023-03-04T20:50:01.000Z,84.19
2023-03-04T20:55:01.000Z,83.57
2023-03-04T21:00:01.000Z,83.39
2023-03-04T21:05:01.000Z,83.45
2023-03-04T21:10:01.000Z,83.50
2023-03-04T21:15:01.000Z,84.37
2023-03-04T21:20:01.000Z,85.36
2023-03-04T21:25:01.000Z,85.03
2023-03-04T21:30:01.000Z,85.51
2023-03-04T21:35:01.000Z,85.40
2023-03-04T21:40:01.000Z,85.38
2023-03-04T21:45:01.000Z,85.09
2023-03-04T21:50:01.000Z,85.09
2023-03-04T21:55:01.000Z,84.64
2023-03-04T22:00:01.000Z,85.27
2023-03-04T22:05:01.000Z,85.49
2023-03-04T22:10:01.000Z,86.00
2023-03-04T22:15:01.000Z,86.67
2023-03-04T22:20:01.000Z,86.76
2023-03-04T22:25:01.000Z,87.04
2023-03-04T22:30:01.000Z,87.44
2023-03-04T22:35:01.000Z,87.86
2023-03-04T22:40:01.000Z,87.50
2023-03-04T22:45:01.000Z,88.08
2023-03-04T22:50:01.000Z,87.97
2023-03-04T22:55:01.000Z,88.03
2023-03-04T23:00:01.000Z,90.37
2023-03-04T23:05:01.000Z,91.05
2023-03-04T23:10:01.000Z,90.30
2023-03-04T23:15:01.000Z,89.92
2023-03-04T23:20:01.000Z,90.09
2023-03-04T23:25:01.000Z,90.35
2023-03-04T23:30:01.000Z,90.30
2023-03-04T23:35:01.000Z,90.35
2023-03-04T23:40:01.000Z,89.26
2023-03-04T23:45:01.000Z,89.46
2023-03-04T23:50:01.000Z,89.70
2023-03-04T23:55:01.000Z,89.55
